Time;durP1;ratioP1;P1;durP2;ratioP2;P2;SDS_P1;SDS_P2;PMS_P1;PMS_P2;Temp;Humidity;BMP_temperature;BMP_pressure;BME280_temperature;BME280_humidity;BME280_pressure;Samples;Min_cycle;Max_cycle;Signal;HPM_P1;HPM_P2
2021/01/05 00:00:54;;;;;;;46.20;25.03;;;;;;;3.48;87.21;100046.87;120602;1151;104453;-80
2021/01/05 00:03:22;;;;;;;46.90;24.97;;;;;;;3.49;87.70;100058.04;120563;1151;104320;-80
2021/01/05 00:05:49;;;;;;;48.07;25.20;;;;;;;3.48;87.73;100058.91;120579;1149;105007;-80
2021/01/05 00:08:16;;;;;;;57.03;26.80;;;;;;;3.49;87.17;100061.47;120605;1150;104353;-81
2021/01/05 00:10:43;;;;;;;51.70;27.37;;;;;;;3.49;87.50;100047.73;120542;1151;104359;-80
2021/01/05 00:13:10;;;;;;;53.15;28.10;;;;;;;3.48;87.09;100046.87;120677;1151;102277;-80
2021/01/05 00:15:37;;;;;;;50.80;27.23;;;;;;;3.46;87.67;100040.87;120523;1150;105255;-81
2021/01/05 00:18:05;;;;;;;53.05;27.22;;;;;;;3.45;87.17;100036.58;120534;1151;104362;-80
2021/01/05 00:20:33;;;;;;;49.70;26.40;;;;;;;3.45;87.82;100049.47;120489;1151;104348;-80
2021/01/05 00:23:15;;;;;;;52.67;25.83;;;;;;;3.44;87.53;100037.45;120537;1150;104458;-79
2021/01/05 00:25:43;;;;;;;57.53;28.00;;;;;;;3.44;87.90;100037.45;120544;1151;104387;-80
2021/01/05 00:28:10;;;;;;;52.60;25.73;;;;;;;3.43;87.81;100048.63;120498;1150;104353;-81
2021/01/05 00:30:39;;;;;;;51.85;26.95;;;;;;;3.43;87.60;100050.35;120524;1151;104417;-80
2021/01/05 00:33:07;;;;;;;50.57;27.17;;;;;;;3.44;88.06;100047.77;120569;1150;104258;-80
2021/01/05 00:35:37;;;;;;;53.33;26.80;;;;;;;3.44;87.62;100046.91;120513;1151;105692;-80
2021/01/05 00:38:09;;;;;;;50.50;26.40;;;;;;;3.45;87.68;100039.16;120556;1151;104327;-81
2021/01/05 00:40:36;;;;;;;47.97;25.57;;;;;;;3.43;87.76;100035.73;120525;1151;104556;-80
2021/01/05 00:43:04;;;;;;;57.97;27.70;;;;;;;3.41;87.87;100046.90;120593;1151;103279;-80
2021/01/05 00:45:35;;;;;;;51.90;27.37;;;;;;;3.37;87.37;100043.49;120625;1151;104448;-80
2021/01/05 00:48:04;;;;;;;50.37;26.30;;;;;;;3.33;88.09;100046.96;120563;1151;104474;-80
2021/01/05 00:50:33;;;;;;;52.90;25.70;;;;;;;3.33;88.24;100029.77;120609;1151;104514;-80
2021/01/05 00:53:00;;;;;;;50.00;24.93;;;;;;;3.31;88.24;100039.23;120681;1150;104503;-80
2021/01/05 00:55:28;;;;;;;50.43;25.97;;;;;;;3.33;88.40;100039.23;120633;1150;104351;-80
2021/01/05 00:57:56;;;;;;;54.73;26.53;;;;;;;3.33;88.05;100037.50;120540;1151;104398;-80
2021/01/05 01:00:27;;;;;;;58.60;27.37;;;;;;;3.35;88.48;100032.34;120533;1150;104345;-80
2021/01/05 01:03:01;;;;;;;45.00;23.20;;;;;;;3.34;88.15;100033.20;120615;1150;104326;-80
2021/01/05 01:05:31;;;;;;;48.17;25.50;;;;;;;3.35;88.17;100032.34;120630;1150;104433;-80
2021/01/05 01:07:58;;;;;;;47.07;25.37;;;;;;;3.36;88.25;100025.45;120564;1151;104496;-80
2021/01/05 01:10:26;;;;;;;49.10;24.65;;;;;;;3.38;88.23;100023.73;120573;1154;104391;-80
2021/01/05 01:12:54;;;;;;;45.03;24.57;;;;;;;3.38;88.52;100022.00;120537;1150;103162;-80
2021/01/05 01:15:22;;;;;;;45.10;24.00;;;;;;;3.39;88.05;100018.55;120603;1150;104405;-80
2021/01/05 01:17:49;;;;;;;43.57;23.47;;;;;;;3.38;88.14;100011.69;120616;1151;104275;-80
2021/01/05 01:20:17;;;;;;;48.07;24.57;;;;;;;3.40;88.12;100012.53;120610;1151;104394;-80
2021/01/05 01:22:46;;;;;;;53.67;26.63;;;;;;;3.40;87.74;100002.22;120560;1151;104513;-80
2021/01/05 01:25:14;;;;;;;54.03;26.23;;;;;;;3.41;88.42;100000.50;120596;1151;104351;-80
2021/01/05 01:27:41;;;;;;;59.10;29.47;;;;;;;3.42;88.30;100002.24;120669;1150;102317;-80
2021/01/05 01:30:10;;;;;;;57.77;28.47;;;;;;;3.43;88.09;99999.65;120629;1150;104461;-80
2021/01/05 01:32:46;;;;;;;;;;;;;;;3.45;88.60;99997.05;120720;1151;102451;-80
2021/01/05 01:35:15;;;;;;;58.90;29.80;;;;;;;3.45;88.49;99992.75;120730;1150;104339;-80
2021/01/05 01:37:42;;;;;;;54.90;28.37;;;;;;;3.45;87.95;99992.75;120619;1150;104542;-80
2021/01/05 01:40:11;;;;;;;57.00;29.70;;;;;;;3.46;88.45;99997.04;120660;1151;103662;-80
2021/01/05 01:42:39;;;;;;;59.77;30.00;;;;;;;3.50;88.29;99996.14;120599;1151;104418;-80
2021/01/05 01:45:08;;;;;;;54.97;28.30;;;;;;;3.55;88.66;99999.53;120656;1150;104308;-79
2021/01/05 01:47:39;;;;;;;56.87;27.97;;;;;;;3.60;87.89;100002.11;120585;1151;104230;-80
2021/01/05 01:50:16;;;;;;;49.97;27.10;;;;;;;3.64;88.60;99999.48;120655;1151;104416;-80
2021/01/05 01:53:02;;;;;;;45.87;25.43;;;;;;;3.70;87.81;100001.14;120633;1151;104371;-80
2021/01/05 01:55:49;;;;;;;44.90;24.30;;;;;;;3.75;87.72;99995.94;120568;1151;104496;-80
2021/01/05 01:58:45;;;;;;;45.57;25.90;;;;;;;3.80;88.32;100000.21;120674;1149;104725;-79
2021/01/05 02:01:42;;;;;;;42.60;23.77;;;;;;;3.82;87.71;99989.88;120594;1151;105893;-79
2021/01/05 02:04:29;;;;;;;;;;;;;;;3.84;87.53;99988.13;120623;1151;104505;-80
2021/01/05 02:07:13;;;;;;;40.30;21.47;;;;;;;3.86;88.07;99988.97;120646;1149;103272;-80
2021/01/05 02:09:56;;;;;;;37.80;20.33;;;;;;;3.88;88.14;99984.66;120678;1150;104341;-80
2021/01/05 02:12:38;;;;;;;34.97;19.73;;;;;;;3.90;87.48;99985.48;120681;1151;104390;-80
2021/01/05 02:15:30;;;;;;;35.55;20.45;;;;;;;3.94;87.93;99982.00;120736;1150;104383;-79
2021/01/05 02:18:20;;;;;;;38.43;21.83;;;;;;;3.94;87.88;99977.70;120696;1150;104393;-80
2021/01/05 02:20:53;;;;;;;38.50;21.30;;;;;;;3.97;87.78;99975.98;120090;1154;104424;-80
2021/01/05 02:23:53;;;;;;;36.33;20.73;;;;;;;3.96;87.26;99975.13;119951;1154;104486;-81
2021/01/05 02:26:50;;;;;;;43.43;22.43;;;;;;;3.95;87.72;99976.00;120508;1153;104476;-80
2021/01/05 02:29:26;;;;;;;40.87;21.70;;;;;;;3.95;87.37;99963.10;120545;1153;104323;-80
2021/01/05 02:32:16;;;;;;;41.07;21.63;;;;;;;4.01;88.02;99957.02;120065;1154;104422;-81
2021/01/05 02:35:02;;;;;;;42.40;22.07;;;;;;;4.04;87.68;99950.09;120531;1154;103084;-80
2021/01/05 02:38:15;;;;;;;43.30;23.67;;;;;;;4.05;87.39;99959.55;120539;1153;104569;-80
2021/01/05 02:41:43;;;;;;;45.83;24.07;;;;;;;4.10;88.11;99946.58;120594;1154;104782;-80
2021/01/05 02:44:47;;;;;;;51.70;25.77;;;;;;;4.11;88.12;99943.98;119836;1156;104370;-80
2021/01/05 02:47:38;;;;;;;55.43;27.53;;;;;;;4.17;87.49;99943.08;119455;1156;104411;-79
2021/01/05 02:50:56;;;;;;;60.15;27.40;;;;;;;4.20;87.63;99925.83;119215;1157;104366;-81
2021/01/05 02:54:28;;;;;;;55.63;27.83;;;;;;;4.17;87.60;99927.59;119110;1157;104281;-79
2021/01/05 02:57:30;;;;;;;51.87;27.10;;;;;;;4.17;87.14;99923.28;119793;1156;103161;-80
2021/01/05 03:00:25;;;;;;;51.93;26.97;;;;;;;4.21;87.76;99914.63;120521;1153;104383;-80
2021/01/05 03:03:47;;;;;;;60.27;28.80;;;;;;;4.20;87.15;99924.98;120563;1153;103190;-80
2021/01/05 03:06:39;;;;;;;60.33;29.77;;;;;;;4.17;87.16;99920.70;119844;1156;104462;-80
2021/01/05 03:09:56;;;;;;;52.43;27.33;;;;;;;4.18;87.80;99909.51;119787;1157;106281;-80
2021/01/05 03:12:56;;;;;;;48.90;26.27;;;;;;;4.13;87.69;99906.14;119772;1157;104426;-80
2021/01/05 03:16:07;;;;;;;54.73;29.27;;;;;;;4.12;87.24;99899.23;119800;1156;104576;-80
2021/01/05 03:19:31;;;;;;;49.10;27.47;;;;;;;4.11;87.22;99892.36;119710;1156;103746;-80
2021/01/05 03:22:21;;;;;;;50.90;28.23;;;;;;;4.13;87.44;99884.60;120042;1154;104435;-79
2021/01/05 03:25:08;;;;;;;51.83;27.53;;;;;;;4.15;87.21;99888.91;119957;1153;103996;-80
2021/01/05 03:28:13;;;;;;;50.00;27.60;;;;;;;4.15;87.41;99880.30;120015;1154;104223;-80
2021/01/05 03:31:22;;;;;;;45.13;25.80;;;;;;;4.12;87.10;99883.75;120189;1154;104301;-79
2021/01/05 03:34:08;;;;;;;45.77;25.57;;;;;;;4.16;87.52;99880.28;120539;1153;104477;-81
2021/01/05 03:36:53;;;;;;;45.43;25.33;;;;;;;4.21;88.03;99875.06;120060;1154;104575;-80
2021/01/05 03:39:39;;;;;;;48.47;25.67;;;;;;;4.22;87.28;99875.03;120456;1152;104659;-79
2021/01/05 03:42:25;;;;;;;45.77;27.30;;;;;;;4.25;87.49;99869.83;120544;1150;104786;-80
2021/01/05 03:45:20;;;;;;;43.80;25.97;;;;;;;4.24;87.34;99857.80;120728;1150;104298;-80
2021/01/05 03:48:06;;;;;;;48.87;27.30;;;;;;;4.19;86.98;99862.17;120760;1151;103161;-81
2021/01/05 03:50:52;;;;;;;45.67;26.20;;;;;;;4.21;87.41;99863.00;120528;1151;104313;-80
2021/01/05 03:53:38;;;;;;;50.00;27.27;;;;;;;4.18;87.42;99852.72;120613;1151;104236;-80
2021/01/05 03:56:38;;;;;;;42.13;24.00;;;;;;;4.17;87.73;99853.59;120463;1152;104311;-80
2021/01/05 03:59:24;;;;;;;43.27;25.30;;;;;;;4.16;87.47;99854.47;120537;1154;104316;-80
2021/01/05 04:02:11;;;;;;;44.23;25.03;;;;;;;4.19;87.96;99854.43;119987;1154;102646;-80
2021/01/05 04:04:38;;;;;;;37.23;20.70;;;;;;;4.18;87.13;99852.72;120483;1153;104759;-80
2021/01/05 04:07:05;;;;;;;34.13;20.27;;;;;;;4.20;87.78;99853.55;120455;1154;104636;-80
2021/01/05 04:09:35;;;;;;;31.23;18.97;;;;;;;4.17;87.73;99853.59;120474;1153;103164;-80
2021/01/05 04:12:03;;;;;;;33.63;19.97;;;;;;;4.17;87.35;99851.02;120448;1153;104534;-80
2021/01/05 04:14:30;;;;;;;28.23;18.23;;;;;;;4.16;86.92;99851.89;120421;1153;104625;-80
2021/01/05 04:16:57;;;;;;;32.20;19.90;;;;;;;4.15;87.03;99846.75;120345;1154;104515;-80
2021/01/05 04:19:24;;;;;;;30.47;18.50;;;;;;;4.12;87.61;99852.78;120426;1154;103415;-80
2021/01/05 04:21:52;;;;;;;29.82;19.48;;;;;;;4.12;87.13;99847.62;120471;1153;104461;-81
2021/01/05 04:24:19;;;;;;;30.17;19.13;;;;;;;4.13;87.36;99851.94;120484;1153;104601;-80
2021/01/05 04:26:46;;;;;;;28.37;17.40;;;;;;;4.14;87.17;99851.06;119989;1154;104357;-79
2021/01/05 04:29:14;;;;;;;25.08;15.05;;;;;;;4.13;86.90;99843.31;119998;1154;104383;-80
2021/01/05 04:31:43;;;;;;;26.00;15.97;;;;;;;4.13;87.10;99839.03;120529;1154;104439;-80
2021/01/05 04:34:13;;;;;;;25.50;17.30;;;;;;;4.14;87.06;99838.16;120674;1150;104316;-80
2021/01/05 04:36:40;;;;;;;23.67;15.00;;;;;;;4.16;86.99;99846.73;120614;1150;103014;-80
2021/01/05 04:39:09;;;;;;;22.50;14.53;;;;;;;4.16;87.00;99838.98;120584;1151;104498;-79
2021/01/05 04:41:42;;;;;;;20.73;13.03;;;;;;;4.18;86.91;99846.70;120617;1151;104834;-80
2021/01/05 04:44:15;;;;;;;20.65;13.85;;;;;;;4.18;86.92;99846.70;120629;1151;104407;-80
2021/01/05 04:47:02;;;;;;;21.57;14.10;;;;;;;4.20;87.00;99850.13;120677;1150;104313;-80
2021/01/05 04:49:58;;;;;;;21.20;14.25;;;;;;;4.22;87.67;99849.22;120586;1151;104423;-81
2021/01/05 04:52:35;;;;;;;22.13;14.30;;;;;;;4.24;87.20;99837.15;120712;1150;104348;-80
2021/01/05 04:55:38;;;;;;;22.60;14.10;;;;;;;4.24;86.87;99831.98;120512;1150;104167;-80
2021/01/05 04:58:25;;;;;;;20.43;12.90;;;;;;;4.25;86.94;99832.84;120675;1151;104319;-80
2021/01/05 05:00:55;;;;;;;20.90;12.57;;;;;;;4.21;87.45;99834.61;120647;1150;102699;-80
2021/01/05 05:03:49;;;;;;;18.07;12.13;;;;;;;4.21;86.62;99829.45;120575;1151;102586;-79
2021/01/05 05:06:57;;;;;;;17.83;12.53;;;;;;;4.18;86.81;99832.08;120621;1151;104398;-80
2021/01/05 05:09:33;;;;;;;19.02;11.90;;;;;;;4.21;87.25;99826.87;120354;1153;104339;-79
2021/01/05 05:12:09;;;;;;;19.15;12.98;;;;;;;4.22;87.42;99828.58;120511;1153;104476;-79
2021/01/05 05:15:04;;;;;;;16.80;11.90;;;;;;;4.22;87.17;99831.16;120533;1153;104519;-80
2021/01/05 05:17:50;;;;;;;18.27;12.30;;;;;;;4.21;87.36;99824.29;120555;1153;104494;-80
2021/01/05 05:20:30;;;;;;;19.10;11.93;;;;;;;4.18;86.67;99821.75;120466;1153;104492;-80
2021/01/05 05:23:23;;;;;;;17.87;11.43;;;;;;;4.20;86.92;99820.00;120472;1153;104620;-80
2021/01/05 05:26:04;;;;;;;16.33;11.43;;;;;;;4.19;87.49;99823.45;120452;1154;104785;-80
2021/01/05 05:29:02;;;;;;;17.30;11.50;;;;;;;4.21;87.08;99820.85;120527;1152;104476;-80
2021/01/05 05:31:33;;;;;;;18.17;11.50;;;;;;;4.22;87.00;99818.25;120559;1153;104373;-80
2021/01/05 05:34:07;;;;;;;14.10;9.80;;;;;;;4.24;87.12;99813.91;119982;1154;104384;-80
2021/01/05 05:36:45;;;;;;;16.87;11.03;;;;;;;4.23;86.81;99807.05;120502;1153;104271;-80
2021/01/05 05:39:24;;;;;;;18.43;12.03;;;;;;;4.22;87.35;99814.81;120532;1153;104953;-80
2021/01/05 05:42:10;;;;;;;18.03;11.70;;;;;;;4.22;87.32;99809.66;120497;1154;104668;-80
2021/01/05 05:44:48;;;;;;;19.37;11.73;;;;;;;4.20;87.04;99804.52;120496;1154;104476;-80
2021/01/05 05:47:34;;;;;;;17.37;10.87;;;;;;;4.20;87.10;99794.19;120572;1150;104374;-80
2021/01/05 05:50:20;;;;;;;19.00;11.93;;;;;;;4.22;86.94;99805.34;120571;1150;104194;-80
2021/01/05 05:52:51;;;;;;;16.63;10.40;;;;;;;4.19;86.73;99797.64;120556;1149;104379;-80
2021/01/05 05:55:39;;;;;;;15.37;11.33;;;;;;;4.21;86.71;99793.31;120637;1150;104310;-80
2021/01/05 05:58:07;;;;;;;17.10;11.50;;;;;;;4.22;87.45;99797.59;120587;1150;104417;-80
2021/01/05 06:00:41;;;;;;;19.33;11.47;;;;;;;4.24;86.87;99782.94;120567;1151;104351;-80
2021/01/05 06:03:12;;;;;;;17.47;12.07;;;;;;;4.21;87.29;99788.15;120518;1151;104375;-80
2021/01/05 06:05:41;;;;;;;15.63;10.70;;;;;;;4.15;86.91;99784.81;120558;1150;104452;-80
2021/01/05 06:08:10;;;;;;;17.93;11.17;;;;;;;4.12;87.11;99779.66;120661;1151;104449;-80
2021/01/05 06:10:39;;;;;;;17.03;11.20;;;;;;;4.12;87.49;99779.66;120663;1151;104387;-79
2021/01/05 06:13:07;;;;;;;15.15;10.65;;;;;;;4.13;87.00;99771.93;120667;1151;104380;-79
2021/01/05 06:15:34;;;;;;;18.63;10.50;;;;;;;4.14;87.27;99773.64;120541;1150;104481;-80
2021/01/05 06:18:07;;;;;;;14.70;9.95;;;;;;;4.12;87.33;99767.61;120511;1150;104567;-80
2021/01/05 06:20:34;;;;;;;14.97;9.90;;;;;;;4.13;87.05;99776.20;120476;1149;104394;-80
2021/01/05 06:23:02;;;;;;;15.43;10.03;;;;;;;4.14;87.49;99776.22;120501;1150;104476;-79
2021/01/05 06:25:30;;;;;;;13.77;9.27;;;;;;;4.16;87.28;99777.05;120582;1150;104526;-79
2021/01/05 06:28:01;;;;;;;15.13;9.97;;;;;;;4.15;86.70;99775.34;120563;1149;104375;-80
2021/01/05 06:30:28;;;;;;;20.30;12.10;;;;;;;4.14;87.50;99768.47;120727;1150;104367;-80
2021/01/05 06:32:55;;;;;;;18.57;11.67;;;;;;;4.15;87.50;99770.17;120575;1150;104361;-79
2021/01/05 06:35:24;;;;;;;14.43;10.17;;;;;;;4.16;87.33;99764.14;120565;1151;104439;-80
2021/01/05 06:37:52;;;;;;;14.57;9.17;;;;;;;4.14;86.85;99758.15;120512;1151;104577;-79
2021/01/05 06:40:23;;;;;;;13.23;8.93;;;;;;;4.14;87.51;99747.83;120557;1150;104492;-80
2021/01/05 06:42:50;;;;;;;12.17;8.37;;;;;;;4.14;86.69;99768.47;120522;1151;104391;-80
2021/01/05 06:45:24;;;;;;;11.20;8.27;;;;;;;4.17;87.46;99752.09;120533;1151;104406;-79
2021/01/05 06:47:52;;;;;;;13.83;8.20;;;;;;;4.12;86.66;99761.59;120537;1150;104420;-80
2021/01/05 06:50:22;;;;;;;11.50;7.40;;;;;;;4.13;86.82;99756.45;120643;1150;102857;-80
2021/01/05 06:52:49;;;;;;;8.50;6.10;;;;;;;4.11;87.24;99763.33;120488;1151;104432;-80
2021/01/05 06:55:18;;;;;;;8.80;6.20;;;;;;;4.10;87.25;99756.46;120548;1151;104307;-80
2021/01/05 06:57:46;;;;;;;9.37;6.20;;;;;;;4.11;87.47;99747.84;120748;1150;104506;-81
2021/01/05 07:00:20;;;;;;;9.73;5.73;;;;;;;4.13;86.73;99755.56;120642;1151;104443;-80
2021/01/05 07:02:48;;;;;;;9.90;7.20;;;;;;;4.15;87.02;99749.53;120595;1151;104313;-80
2021/01/05 07:05:16;;;;;;;8.60;5.50;;;;;;;4.14;86.55;99752.98;120533;1150;104427;-80
2021/01/05 07:07:44;;;;;;;8.63;5.10;;;;;;;4.13;86.84;99756.45;120600;1151;104481;-80
2021/01/05 07:10:12;;;;;;;8.30;4.70;;;;;;;4.12;86.46;99759.87;120711;1150;104353;-80
2021/01/05 07:12:40;;;;;;;9.33;4.97;;;;;;;4.07;86.33;99746.19;120740;1151;104512;-80
2021/01/05 07:15:09;;;;;;;7.53;4.50;;;;;;;4.06;86.77;99734.16;120612;1150;104390;-80
2021/01/05 07:17:36;;;;;;;5.40;4.27;;;;;;;4.03;86.61;99738.52;120548;1150;104419;-79
2021/01/05 07:20:07;;;;;;;7.07;4.73;;;;;;;4.05;87.01;99741.92;120530;1151;104396;-80
2021/01/05 07:22:35;;;;;;;6.20;4.03;;;;;;;4.05;87.23;99736.77;120547;1150;103166;-80
2021/01/05 07:25:05;;;;;;;7.70;3.83;;;;;;;4.07;86.39;99730.70;120568;1149;103205;-80
2021/01/05 07:27:32;;;;;;;6.03;3.80;;;;;;;4.08;86.57;99732.41;120593;1150;104421;-80
2021/01/05 07:29:59;;;;;;;5.67;3.90;;;;;;;4.09;87.03;99734.11;120524;1151;104442;-79
2021/01/05 07:32:26;;;;;;;5.80;3.90;;;;;;;4.10;87.12;99729.80;120513;1151;104474;-80
2021/01/05 07:34:53;;;;;;;7.30;4.33;;;;;;;4.10;86.91;99735.81;120469;1151;104338;-80
2021/01/05 07:37:25;;;;;;;6.03;4.10;;;;;;;4.11;86.85;99739.25;120635;1150;104431;-80
2021/01/05 07:39:52;;;;;;;5.27;3.87;;;;;;;4.07;86.20;99735.86;120573;1151;104345;-80
2021/01/05 07:42:22;;;;;;;5.50;3.77;;;;;;;4.05;86.05;99722.13;120584;1150;104343;-79
2021/01/05 07:44:53;;;;;;;4.80;3.50;;;;;;;4.02;86.69;99731.66;120724;1150;104319;-80
2021/01/05 07:47:23;;;;;;;3.95;3.05;;;;;;;3.98;86.16;99728.27;120640;1151;104220;-80
2021/01/05 07:49:50;;;;;;;4.63;3.40;;;;;;;3.98;86.78;99723.11;120547;1151;104405;-80
2021/01/05 07:52:44;;;;;;;5.73;2.93;;;;;;;3.99;86.23;99726.53;120574;1151;105079;-79
2021/01/05 07:55:23;;;;;;;5.60;3.27;;;;;;;3.99;86.67;99722.23;120583;1151;104377;-80
2021/01/05 07:57:54;;;;;;;4.57;3.07;;;;;;;3.99;86.33;99713.64;120671;1151;104370;-80
2021/01/05 08:00:25;;;;;;;5.53;3.17;;;;;;;3.98;86.05;99710.20;120581;1149;105578;-80
2021/01/05 08:02:53;;;;;;;3.87;2.53;;;;;;;3.99;86.44;99711.91;120586;1151;104369;-80
2021/01/05 08:05:25;;;;;;;3.50;2.20;;;;;;;4.02;86.39;99716.17;120630;1151;104429;-80
2021/01/05 08:07:52;;;;;;;3.67;2.30;;;;;;;4.03;85.75;99718.73;120598;1151;104499;-80
2021/01/05 08:10:22;;;;;;;4.93;2.37;;;;;;;3.96;85.78;99717.12;120581;1151;104338;-80
2021/01/05 08:12:49;;;;;;;2.70;2.00;;;;;;;3.89;85.60;99710.31;120560;1151;104429;-80
2021/01/05 08:15:19;;;;;;;6.13;2.50;;;;;;;3.81;85.32;99713.01;120656;1150;104462;-81
2021/01/05 08:17:48;;;;;;;4.43;2.70;;;;;;;3.78;85.78;99712.20;120596;1150;104426;-80
2021/01/05 08:20:21;;;;;;;4.43;3.30;;;;;;;3.73;84.99;99701.07;120576;1151;104422;-80
2021/01/05 08:22:48;;;;;;;3.83;2.93;;;;;;;3.71;85.92;99700.24;120635;1149;104483;-79
2021/01/05 08:25:17;;;;;;;5.00;3.10;;;;;;;3.72;85.81;99694.21;120551;1151;104319;-80
2021/01/05 08:27:48;;;;;;;4.80;2.85;;;;;;;3.75;86.13;99697.59;120728;1150;104480;-80
2021/01/05 08:30:31;;;;;;;6.50;2.60;;;;;;;3.79;85.88;99699.28;120551;1151;104421;-79
2021/01/05 08:33:04;;;;;;;4.50;2.57;;;;;;;3.80;85.74;99700.14;120642;1149;104446;-79
2021/01/05 08:35:33;;;;;;;2.20;1.77;;;;;;;3.80;85.85;99703.56;120655;1150;104447;-79
2021/01/05 08:38:00;;;;;;;2.03;1.63;;;;;;;3.76;85.67;99698.45;120578;1151;105043;-80
2021/01/05 08:40:30;;;;;;;2.80;1.83;;;;;;;3.73;85.23;99695.91;120628;1151;101969;-79
2021/01/05 08:43:02;;;;;;;3.27;1.90;;;;;;;3.64;84.79;99692.59;120566;1150;104679;-79
2021/01/05 08:45:30;;;;;;;3.53;1.63;;;;;;;3.61;85.41;99684.91;120670;1150;104233;-79
2021/01/05 08:48:00;;;;;;;4.70;1.80;;;;;;;3.58;85.53;99681.48;120526;1150;104189;-79
2021/01/05 08:50:31;;;;;;;2.93;1.70;;;;;;;3.57;85.57;99683.21;120660;1150;104325;-80
2021/01/05 08:53:04;;;;;;;2.87;1.77;;;;;;;3.55;85.16;99682.38;120537;1151;104301;-80
2021/01/05 08:55:40;;;;;;;2.70;1.60;;;;;;;3.53;84.97;99670.39;120519;1151;104390;-80
2021/01/05 08:58:08;;;;;;;4.90;1.90;;;;;;;3.52;84.95;99672.11;120560;1151;104201;-80
2021/01/05 09:00:36;;;;;;;3.33;1.40;;;;;;;3.49;84.66;99679.89;120518;1151;104341;-80
2021/01/05 09:03:04;;;;;;;2.87;1.50;;;;;;;3.45;84.72;99670.50;120550;1151;104449;-80
2021/01/05 09:05:46;;;;;;;3.37;1.60;;;;;;;3.45;85.44;99673.08;120590;1151;104348;-80
2021/01/05 09:08:14;;;;;;;3.47;1.57;;;;;;;3.45;85.45;99661.91;120589;1151;104469;-80
2021/01/05 09:10:42;;;;;;;3.47;1.43;;;;;;;3.44;85.50;99661.06;120564;1150;104445;-80
2021/01/05 09:13:09;;;;;;;2.37;1.40;;;;;;;3.38;84.62;99668.00;120569;1151;102942;-80
2021/01/05 09:15:36;;;;;;;2.80;1.70;;;;;;;3.31;84.30;99670.66;120543;1150;104338;-79
2021/01/05 09:18:03;;;;;;;2.27;1.50;;;;;;;3.26;84.94;99659.56;120586;1151;104506;-80
2021/01/05 09:20:31;;;;;;;3.33;1.60;;;;;;;3.19;84.80;99665.64;120577;1151;104426;-80
2021/01/05 09:22:58;;;;;;;2.37;1.73;;;;;;;3.17;84.85;99663.95;120489;1150;104480;-80
2021/01/05 09:25:26;;;;;;;4.40;2.00;;;;;;;3.13;85.06;99670.02;120516;1151;103079;-81
2021/01/05 09:27:53;;;;;;;5.50;2.30;;;;;;;3.11;84.52;99661.45;120515;1149;104354;-80
2021/01/05 09:30:22;;;;;;;2.20;1.33;;;;;;;3.06;84.39;99660.67;120542;1150;104372;-80
2021/01/05 09:32:49;;;;;;;3.90;1.73;;;;;;;3.00;84.71;99664.99;120555;1150;104390;-80
2021/01/05 09:35:18;;;;;;;3.15;1.70;;;;;;;2.95;84.73;99653.89;120668;1150;103310;-81
2021/01/05 09:37:47;;;;;;;4.53;1.80;;;;;;;2.96;84.52;99649.59;120752;1150;104314;-81
2021/01/05 09:40:18;;;;;;;2.30;1.60;;;;;;;2.88;84.54;99639.39;120642;1150;103184;-80
2021/01/05 09:42:46;;;;;;;3.30;1.50;;;;;;;2.85;84.88;99639.39;120670;1151;103261;-81
2021/01/05 09:45:14;;;;;;;2.77;1.43;;;;;;;2.85;85.23;99639.39;120585;1150;104364;-81
2021/01/05 09:47:42;;;;;;;3.03;1.60;;;;;;;2.89;85.20;99632.52;120539;1150;104412;-80
2021/01/05 09:50:10;;;;;;;2.60;1.80;;;;;;;2.93;85.05;99636.75;120674;1150;104401;-81
2021/01/05 09:52:37;;;;;;;3.00;1.73;;;;;;;2.94;85.25;99639.31;120644;1150;104294;-80
2021/01/05 09:55:05;;;;;;;4.57;2.13;;;;;;;2.95;84.61;99617.83;120608;1151;102808;-80
2021/01/05 09:57:33;;;;;;;4.13;2.30;;;;;;;2.97;84.83;99622.97;120562;1151;104349;-79
2021/01/05 10:00:00;;;;;;;4.63;2.33;;;;;;;2.97;84.75;99610.94;120591;1150;104465;-79
2021/01/05 10:02:30;;;;;;;3.00;2.50;;;;;;;2.98;84.85;99615.22;120667;1150;104208;-82
2021/01/05 10:04:57;;;;;;;9.03;3.10;;;;;;;2.94;84.35;99610.98;120554;1151;104427;-82
2021/01/05 10:07:24;;;;;;;3.30;2.70;;;;;;;2.90;84.49;99604.16;120637;1150;104423;-82
2021/01/05 10:09:52;;;;;;;3.97;2.23;;;;;;;2.86;84.45;99599.89;120547;1151;105412;-82
2021/01/05 10:12:19;;;;;;;4.17;2.53;;;;;;;2.83;84.51;99599.08;120609;1150;104330;-82
2021/01/05 10:14:46;;;;;;;3.37;2.10;;;;;;;2.76;83.84;99590.58;120610;1151;104420;-82
2021/01/05 10:17:13;;;;;;;2.60;1.90;;;;;;;2.71;84.30;99582.06;120678;1150;104464;-82
2021/01/05 10:19:40;;;;;;;2.77;2.10;;;;;;;2.71;84.13;99582.06;120598;1151;104474;-83
2021/01/05 10:22:07;;;;;;;2.83;2.20;;;;;;;2.69;84.48;99576.93;120604;1151;102947;-83
2021/01/05 10:24:34;;;;;;;3.93;2.20;;;;;;;2.69;83.87;99582.08;120598;1150;104282;-83
2021/01/05 10:27:01;;;;;;;3.40;2.70;;;;;;;2.72;84.29;99581.19;120592;1150;104375;-82
2021/01/05 10:29:29;;;;;;;2.73;2.13;;;;;;;2.67;83.72;99565.77;120560;1150;104432;-82
2021/01/05 10:31:56;;;;;;;3.40;2.37;;;;;;;2.60;83.95;99565.86;120534;1150;104647;-83
2021/01/05 10:34:25;;;;;;;2.97;2.20;;;;;;;2.53;83.32;99556.52;120665;1151;104370;-82
2021/01/05 10:36:54;;;;;;;4.20;2.53;;;;;;;2.50;83.61;99562.52;120581;1150;104372;-81
2021/01/05 10:39:22;;;;;;;4.67;2.43;;;;;;;2.48;83.45;99565.98;120606;1149;104484;-83
2021/01/05 10:41:49;;;;;;;3.13;2.73;;;;;;;2.45;83.60;99561.72;120685;1151;104436;-83
2021/01/05 10:44:19;;;;;;;4.43;2.50;;;;;;;2.39;83.91;99562.66;120633;1150;104224;-83
2021/01/05 10:46:46;;;;;;;5.67;2.90;;;;;;;2.31;83.52;99561.00;120614;1150;104336;-83
2021/01/05 10:49:15;;;;;;;4.63;2.90;;;;;;;2.29;83.99;99547.30;120642;1149;104346;-83
2021/01/05 10:51:46;;;;;;;4.90;2.77;;;;;;;2.31;84.38;99551.56;120661;1150;104475;-83
2021/01/05 10:54:16;;;;;;;4.17;3.13;;;;;;;2.27;83.82;99547.33;120577;1151;104429;-83
2021/01/05 10:56:45;;;;;;;4.23;3.50;;;;;;;2.25;83.99;99543.06;120606;1151;104423;-83
2021/01/05 10:59:14;;;;;;;5.60;3.30;;;;;;;2.27;84.29;99534.45;120575;1151;104476;-82
2021/01/05 11:01:41;;;;;;;3.87;3.03;;;;;;;2.26;84.82;99530.18;120682;1150;104415;-82
2021/01/05 11:04:08;;;;;;;4.30;3.00;;;;;;;2.26;84.52;99530.18;120563;1151;104326;-83
2021/01/05 11:06:37;;;;;;;5.53;3.23;;;;;;;2.25;84.47;99520.76;120691;1151;104393;-82
2021/01/05 11:09:05;;;;;;;3.63;2.90;;;;;;;2.28;84.69;99513.00;120626;1150;104421;-82
2021/01/05 11:11:35;;;;;;;4.50;3.10;;;;;;;2.32;84.85;99514.67;120727;1150;104379;-82
2021/01/05 11:14:02;;;;;;;5.97;3.60;;;;;;;2.35;85.37;99509.52;120590;1150;104420;-82
2021/01/05 11:16:29;;;;;;;9.23;4.30;;;;;;;2.39;85.37;99503.46;120613;1151;104436;-82
2021/01/05 11:18:56;;;;;;;4.73;4.00;;;;;;;2.43;85.44;99505.13;120718;1149;104387;-82
2021/01/05 11:21:23;;;;;;;5.70;3.77;;;;;;;2.46;85.47;99496.52;120581;1151;104435;-82
2021/01/05 11:23:50;;;;;;;8.83;4.40;;;;;;;2.49;85.54;99505.91;120667;1151;104848;-82
2021/01/05 11:26:17;;;;;;;5.57;4.20;;;;;;;2.50;84.64;99484.45;120700;1151;104323;-82
2021/01/05 11:28:52;;;;;;;4.60;4.15;;;;;;;2.51;84.94;99476.71;120665;1150;104365;-82
2021/01/05 11:31:19;;;;;;;5.67;4.13;;;;;;;2.54;84.88;99483.57;120553;1151;104350;-84
2021/01/05 11:33:47;;;;;;;5.40;4.17;;;;;;;2.53;85.04;99481.88;120592;1151;104346;-83
2021/01/05 11:36:22;;;;;;;5.40;3.77;;;;;;;2.55;85.25;99485.27;120609;1150;104370;-83
2021/01/05 11:38:49;;;;;;;5.80;3.77;;;;;;;2.59;85.14;99466.34;120572;1150;103347;-83
2021/01/05 11:41:34;;;;;;;5.90;3.80;;;;;;;2.65;85.76;99474.83;120573;1151;104420;-83
2021/01/05 11:44:03;;;;;;;7.13;4.17;;;;;;;2.67;85.64;99469.66;120565;1151;104316;-83
2021/01/05 11:46:31;;;;;;;6.73;4.60;;;;;;;2.67;85.14;99474.81;120583;1151;104417;-83
2021/01/05 11:48:58;;;;;;;5.93;4.27;;;;;;;2.67;85.24;99475.66;120665;1150;103080;-83
2021/01/05 11:51:28;;;;;;;5.83;4.20;;;;;;;2.69;85.89;99473.06;120570;1150;104436;-83